createdAt,value
2018-05-15T00:00:28.173Z,0.00
2018-05-15T00:01:28.206Z,0.00
2018-05-15T00:02:28.165Z,0.00
2018-05-15T00:03:28.175Z,0.00
2018-05-15T00:04:28.196Z,0.00
2018-05-15T00:05:28.173Z,0.00
2018-05-15T00:06:28.180Z,0.00
2018-05-15T00:07:28.190Z,0.00
2018-05-15T00:08:28.170Z,0.00
2018-05-15T00:09:28.171Z,0.00
2018-05-15T00:10:28.197Z,0.00
2018-05-15T00:11:28.455Z,0.00
2018-05-15T00:12:28.187Z,0.00
2018-05-15T00:13:28.232Z,0.00
2018-05-15T00:14:28.234Z,0.00
2018-05-15T00:15:28.197Z,0.00
2018-05-15T00:16:28.174Z,0.00
2018-05-15T00:17:28.178Z,0.00
2018-05-15T00:18:28.151Z,0.00
2018-05-15T00:19:28.164Z,0.00
2018-05-15T00:20:28.158Z,0.00
2018-05-15T00:21:28.176Z,0.00
2018-05-15T00:22:28.171Z,0.00
2018-05-15T00:23:28.161Z,0.00
2018-05-15T00:24:28.166Z,0.00
2018-05-15T00:25:28.171Z,0.00
2018-05-15T00:26:28.171Z,0.00
2018-05-15T00:27:28.197Z,0.00
2018-05-15T00:28:28.171Z,0.00
2018-05-15T00:29:28.178Z,0.00
2018-05-15T00:30:28.171Z,0.00
2018-05-15T00:31:28.468Z,0.00
2018-05-15T00:32:28.180Z,0.00
2018-05-15T00:33:28.234Z,0.00
2018-05-15T00:34:28.177Z,0.00
2018-05-15T00:35:28.204Z,0.00
2018-05-15T00:36:28.185Z,0.00
2018-05-15T00:37:28.182Z,0.00
2018-05-15T00:38:28.199Z,0.00
2018-05-15T00:39:34.251Z,0.00
2018-05-15T00:40:27.829Z,0.00
2018-05-15T00:41:28.240Z,0.00
2018-05-15T00:42:28.480Z,0.00
2018-05-15T00:43:28.191Z,0.00
2018-05-15T00:44:28.178Z,0.00
2018-05-15T00:45:28.180Z,0.00
2018-05-15T00:46:28.180Z,0.00
2018-05-15T00:47:28.198Z,0.00
2018-05-15T00:48:28.173Z,0.00
2018-05-15T00:49:28.169Z,0.00
2018-05-15T00:50:28.173Z,0.00
2018-05-15T00:51:28.172Z,0.00
2018-05-15T00:52:27.729Z,0.00
2018-05-15T00:53:28.204Z,0.00
2018-05-15T00:54:27.775Z,0.00
2018-05-15T00:55:28.458Z,0.00
2018-05-15T00:56:28.188Z,0.00
2018-05-15T00:57:28.208Z,0.00
2018-05-15T00:58:28.193Z,0.00
2018-05-15T00:59:28.189Z,0.00
2018-05-15T01:00:28.234Z,0.00
2018-05-15T01:01:28.200Z,0.00
2018-05-15T01:02:28.477Z,0.00
2018-05-15T01:03:28.236Z,0.00
2018-05-15T01:04:28.208Z,0.00
2018-05-15T01:05:28.184Z,0.00
2018-05-15T01:06:28.193Z,0.00
2018-05-15T01:07:28.193Z,0.00
2018-05-15T01:08:28.172Z,0.00
2018-05-15T01:09:28.215Z,0.00
2018-05-15T01:10:28.226Z,0.00
2018-05-15T01:11:28.221Z,0.00
2018-05-15T01:12:30.056Z,0.00
2018-05-15T01:13:28.246Z,0.00
2018-05-15T01:14:28.181Z,0.00
2018-05-15T01:15:28.230Z,0.00
2018-05-15T01:16:28.178Z,0.00
2018-05-15T01:17:27.878Z,0.00
2018-05-15T01:18:28.256Z,0.00
2018-05-15T01:19:28.229Z,0.00
2018-05-15T01:20:28.198Z,0.00
2018-05-15T01:21:28.171Z,0.00
2018-05-15T01:22:28.484Z,0.00
2018-05-15T01:23:28.553Z,0.00
2018-05-15T01:24:28.480Z,0.00
2018-05-15T01:25:28.191Z,0.00
2018-05-15T01:26:28.172Z,0.00
2018-05-15T01:27:28.193Z,0.00
2018-05-15T01:28:29.642Z,0.00
2018-05-15T01:29:28.197Z,0.00
2018-05-15T01:30:28.214Z,0.00
2018-05-15T01:31:28.182Z,0.00
2018-05-15T01:32:28.193Z,0.00
2018-05-15T01:33:28.212Z,0.00
2018-05-15T01:34:28.287Z,0.00
2018-05-15T01:35:28.213Z,0.00
2018-05-15T01:36:28.199Z,0.00
2018-05-15T01:37:28.236Z,0.00
2018-05-15T01:38:28.258Z,0.00
2018-05-15T01:39:28.291Z,0.00
2018-05-15T01:40:28.492Z,0.00
2018-05-15T01:41:28.210Z,0.00
2018-05-15T01:42:28.448Z,0.00
2018-05-15T01:43:28.374Z,0.00
2018-05-15T01:44:28.340Z,0.00
2018-05-15T01:45:28.208Z,0.00
2018-05-15T01:46:28.186Z,0.00
2018-05-15T01:47:28.199Z,0.00
2018-05-15T01:48:28.216Z,0.00
2018-05-15T01:49:28.209Z,0.00
2018-05-15T01:50:28.184Z,0.00
2018-05-15T01:51:28.238Z,0.00
2018-05-15T01:52:30.039Z,0.00
2018-05-15T01:53:28.219Z,0.00
2018-05-15T01:54:28.230Z,0.00
2018-05-15T01:55:28.246Z,0.00
2018-05-15T01:56:28.222Z,0.00
2018-05-15T01:57:27.955Z,0.00
2018-05-15T01:58:28.258Z,0.00
2018-05-15T01:59:28.278Z,0.00
2018-05-15T02:00:28.269Z,0.00
2018-05-15T02:01:28.252Z,0.00
2018-05-15T02:02:28.250Z,0.00
2018-05-15T02:03:28.257Z,0.00
2018-05-15T02:04:28.257Z,0.00
2018-05-15T02:05:28.293Z,0.00
2018-05-15T02:06:28.296Z,0.00
2018-05-15T02:07:28.327Z,0.00
2018-05-15T02:08:28.251Z,0.00
2018-05-15T02:09:28.477Z,0.00
2018-05-15T02:10:28.330Z,0.00
2018-05-15T02:11:28.480Z,0.00
2018-05-15T02:12:28.189Z,0.00
2018-05-15T02:13:28.236Z,0.00
2018-05-15T02:14:28.186Z,0.00
2018-05-15T02:15:28.175Z,0.00
2018-05-15T02:16:28.247Z,0.00
2018-05-15T02:17:28.466Z,0.00
2018-05-15T02:18:28.009Z,0.00
2018-05-15T02:19:28.183Z,0.00
2018-05-15T02:20:28.495Z,0.00
2018-05-15T02:21:28.465Z,0.00
2018-05-15T02:22:28.329Z,0.00
2018-05-15T02:23:28.466Z,0.00
2018-05-15T02:24:28.332Z,0.00
2018-05-15T02:25:28.333Z,0.00
2018-05-15T02:26:28.021Z,0.00
2018-05-15T02:27:28.473Z,0.00
2018-05-15T02:28:28.338Z,0.00
2018-05-15T02:29:28.335Z,0.00
2018-05-15T02:30:28.436Z,0.00
2018-05-15T02:31:28.357Z,0.00
2018-05-15T02:32:28.352Z,0.00
2018-05-15T02:33:28.315Z,0.00
2018-05-15T02:34:28.270Z,0.00
2018-05-15T02:35:28.265Z,0.00
2018-05-15T02:36:28.266Z,0.00
2018-05-15T02:37:28.292Z,0.00
2018-05-15T02:38:28.295Z,0.00
2018-05-15T02:39:28.315Z,0.00
2018-05-15T02:40:28.476Z,0.00
2018-05-15T02:41:28.338Z,0.00
2018-05-15T02:42:28.331Z,0.00
2018-05-15T02:43:28.326Z,0.00
2018-05-15T02:44:28.357Z,0.00
2018-05-15T02:45:28.351Z,0.00
2018-05-15T02:46:28.295Z,0.00
2018-05-15T02:47:28.334Z,0.00
2018-05-15T02:48:28.347Z,0.00
2018-05-15T02:49:28.342Z,0.00
2018-05-15T02:50:28.391Z,0.00
2018-05-15T02:51:28.405Z,0.00
2018-05-15T02:52:28.375Z,0.00
2018-05-15T02:53:28.411Z,0.00
2018-05-15T02:54:28.480Z,0.00
2018-05-15T02:55:28.347Z,0.00
2018-05-15T02:56:28.442Z,0.00
2018-05-15T02:57:28.288Z,0.00
2018-05-15T02:58:28.297Z,0.00
2018-05-15T02:59:28.275Z,0.00
2018-05-15T03:00:28.309Z,0.00
2018-05-15T03:01:28.271Z,0.00
2018-05-15T03:02:28.403Z,0.00
2018-05-15T03:03:28.342Z,0.00
2018-05-15T03:04:28.356Z,0.00
2018-05-15T03:05:28.449Z,4.00
2018-05-15T03:06:28.446Z,4.00
2018-05-15T03:07:28.443Z,4.00
2018-05-15T03:08:28.495Z,0.00
2018-05-15T03:09:27.705Z,4.00
2018-05-15T03:10:28.438Z,4.00
2018-05-15T03:11:28.411Z,4.00
2018-05-15T03:12:30.262Z,4.00
2018-05-15T03:13:28.504Z,8.00
2018-05-15T03:14:28.497Z,8.00
2018-05-15T03:15:28.487Z,4.00
2018-05-15T03:16:28.481Z,8.00
2018-05-15T03:17:28.416Z,8.00
2018-05-15T03:18:28.501Z,8.00
2018-05-15T03:19:28.478Z,12.00
2018-05-15T03:20:28.513Z,16.00
2018-05-15T03:21:28.499Z,16.00
2018-05-15T03:22:28.500Z,20.00
2018-05-15T03:23:34.244Z,20.00
2018-05-15T03:24:28.376Z,24.00
2018-05-15T03:25:28.410Z,28.00
2018-05-15T03:26:28.486Z,28.00
2018-05-15T03:27:28.425Z,32.00
2018-05-15T03:28:28.473Z,40.00
2018-05-15T03:29:28.760Z,40.00
2018-05-15T03:30:28.749Z,48.00
2018-05-15T03:31:28.742Z,52.00
2018-05-15T03:32:28.770Z,56.00
2018-05-15T03:33:28.758Z,64.00
2018-05-15T03:34:30.755Z,68.00
2018-05-15T03:35:28.757Z,76.00
2018-05-15T03:36:28.772Z,80.00
2018-05-15T03:37:28.769Z,88.00
2018-05-15T03:38:28.994Z,96.00
2018-05-15T03:39:28.735Z,108.00
2018-05-15T03:40:28.746Z,112.00
2018-05-15T03:41:28.796Z,124.00
2018-05-15T03:42:28.755Z,132.00
2018-05-15T03:43:28.793Z,144.00
2018-05-15T03:44:28.801Z,152.00
2018-05-15T03:45:28.737Z,160.00
2018-05-15T03:46:28.788Z,172.00
2018-05-15T03:47:28.791Z,184.00
2018-05-15T03:48:28.801Z,192.00
2018-05-15T03:49:28.804Z,204.00
2018-05-15T03:50:28.826Z,216.00
2018-05-15T03:51:28.814Z,228.00
2018-05-15T03:52:28.817Z,240.00
2018-05-15T03:53:28.769Z,252.00
2018-05-15T03:54:28.806Z,264.00
2018-05-15T03:55:28.769Z,276.00
2018-05-15T03:56:28.762Z,292.00
2018-05-15T03:57:28.763Z,304.00
2018-05-15T03:58:28.786Z,316.00
2018-05-15T03:59:28.800Z,328.00
2018-05-15T04:00:28.814Z,340.00
2018-05-15T04:01:28.239Z,352.00
2018-05-15T04:02:28.804Z,364.00
2018-05-15T04:03:28.787Z,376.00
2018-05-15T04:04:28.802Z,388.00
2018-05-15T04:05:28.765Z,404.00
2018-05-15T04:06:28.750Z,416.00
2018-05-15T04:07:28.739Z,428.00
2018-05-15T04:08:28.732Z,440.00
2018-05-15T04:09:28.750Z,456.00
2018-05-15T04:10:28.735Z,464.00
2018-05-15T04:11:28.743Z,480.00
2018-05-15T04:12:28.736Z,492.00
2018-05-15T04:13:28.800Z,504.00
2018-05-15T04:14:28.791Z,516.00
2018-05-15T04:15:28.792Z,532.00
2018-05-15T04:16:28.749Z,544.00
2018-05-15T04:17:28.744Z,556.00
2018-05-15T04:18:28.176Z,568.00
2018-05-15T04:19:28.790Z,580.00
2018-05-15T04:20:28.769Z,588.00
2018-05-15T04:21:28.793Z,600.00
2018-05-15T04:22:28.757Z,612.00
2018-05-15T04:23:28.815Z,624.00
2018-05-15T04:24:28.766Z,632.00
2018-05-15T04:25:29.045Z,644.00
2018-05-15T04:26:28.787Z,656.00
2018-05-15T04:27:28.816Z,668.00
2018-05-15T04:28:28.871Z,676.00
2018-05-15T04:29:28.752Z,688.00
2018-05-15T04:30:28.801Z,700.00
2018-05-15T04:31:28.822Z,712.00
2018-05-15T04:32:28.804Z,724.00
2018-05-15T04:33:29.038Z,732.00
2018-05-15T04:34:28.735Z,748.00
2018-05-15T04:35:28.741Z,756.00
2018-05-15T04:36:28.736Z,768.00
2018-05-15T04:37:28.744Z,780.00
2018-05-15T04:38:28.768Z,788.00
2018-05-15T04:39:28.750Z,800.00
2018-05-15T04:40:28.742Z,808.00
2018-05-15T04:41:28.745Z,820.00
2018-05-15T04:42:28.791Z,828.00
2018-05-15T04:43:28.986Z,840.00
2018-05-15T04:44:28.744Z,852.00
2018-05-15T04:45:28.754Z,856.00
2018-05-15T04:46:28.808Z,868.00
2018-05-15T04:47:28.757Z,880.00
2018-05-15T04:48:28.750Z,892.00
2018-05-15T04:49:30.823Z,900.00
2018-05-15T04:50:28.811Z,912.00
2018-05-15T04:51:29.038Z,920.00
2018-05-15T04:52:28.805Z,932.00
2018-05-15T04:53:31.072Z,940.00
2018-05-15T04:54:28.808Z,948.00
2018-05-15T04:55:28.818Z,960.00
2018-05-15T04:56:28.825Z,968.00
2018-05-15T04:57:28.730Z,976.00
2018-05-15T04:58:28.747Z,988.00
2018-05-15T04:59:28.749Z,992.00
2018-05-15T05:00:28.757Z,1004.00
2018-05-15T05:01:28.769Z,1008.00
2018-05-15T05:02:28.752Z,1020.00
2018-05-15T05:03:28.768Z,1028.00
2018-05-15T05:04:28.809Z,1036.00
2018-05-15T05:05:29.068Z,1040.00
2018-05-15T05:06:28.246Z,1048.00
2018-05-15T05:07:28.813Z,1052.00
2018-05-15T05:08:28.830Z,1064.00
2018-05-15T05:09:28.857Z,1072.00
2018-05-15T05:10:29.210Z,1076.00
2018-05-15T05:11:28.806Z,1088.00
2018-05-15T05:12:28.753Z,1092.00
2018-05-15T05:13:28.811Z,1100.00
2018-05-15T05:14:29.026Z,1104.00
2018-05-15T05:15:28.825Z,1112.00
2018-05-15T05:16:29.068Z,1120.00
2018-05-15T05:17:28.315Z,1128.00
2018-05-15T05:18:29.125Z,1132.00
2018-05-15T05:19:28.575Z,1140.00
2018-05-15T05:20:29.206Z,1148.00
2018-05-15T05:21:28.839Z,1156.00
2018-05-15T05:22:28.810Z,1160.00
2018-05-15T05:23:28.828Z,1164.00
2018-05-15T05:24:28.834Z,1168.00
2018-05-15T05:25:29.071Z,1172.00
2018-05-15T05:26:29.071Z,1180.00
2018-05-15T05:27:28.267Z,1188.00
2018-05-15T05:28:28.828Z,1192.00
2018-05-15T05:29:29.081Z,1196.00
2018-05-15T05:30:28.753Z,1204.00
2018-05-15T05:31:29.385Z,1208.00
2018-05-15T05:32:28.571Z,1216.00
2018-05-15T05:33:28.786Z,1224.00
2018-05-15T05:34:29.072Z,1232.00
2018-05-15T05:35:29.075Z,1236.00
2018-05-15T05:36:29.365Z,1240.00
2018-05-15T05:37:29.146Z,1244.00
2018-05-15T05:38:28.772Z,1252.00
2018-05-15T05:39:28.794Z,1256.00
2018-05-15T05:40:29.082Z,1256.00
2018-05-15T05:41:28.814Z,1260.00
2018-05-15T05:42:28.825Z,1268.00
2018-05-15T05:43:28.822Z,1272.00
2018-05-15T05:44:28.811Z,1280.00
2018-05-15T05:45:28.800Z,1284.00
2018-05-15T05:46:29.188Z,1288.00
2018-05-15T05:47:29.084Z,1296.00
2018-05-15T05:48:29.397Z,1300.00
2018-05-15T05:49:27.393Z,1300.00
2018-05-15T05:50:29.135Z,1304.00
2018-05-15T05:51:28.752Z,1316.00
2018-05-15T05:52:28.810Z,1320.00
2018-05-15T05:53:28.785Z,1324.00
2018-05-15T05:54:29.079Z,1332.00
2018-05-15T05:55:29.072Z,1336.00
2018-05-15T05:56:29.372Z,1344.00
2018-05-15T05:57:29.080Z,1348.00
2018-05-15T05:58:28.355Z,1356.00
2018-05-15T05:59:29.083Z,1368.00
2018-05-15T06:00:28.818Z,1376.00
2018-05-15T06:01:29.063Z,1376.00
2018-05-15T06:02:28.591Z,1380.00
2018-05-15T06:03:29.075Z,1380.00
2018-05-15T06:04:28.823Z,1388.00
2018-05-15T06:05:29.085Z,1392.00
2018-05-15T06:06:29.031Z,1396.00
2018-05-15T06:07:28.843Z,1404.00
2018-05-15T06:08:28.807Z,1408.00
2018-05-15T06:09:29.084Z,1412.00
2018-05-15T06:10:28.796Z,1420.00
2018-05-15T06:11:29.086Z,1424.00
2018-05-15T06:12:28.879Z,1428.00
2018-05-15T06:13:29.440Z,1440.00
2018-05-15T06:14:29.499Z,1448.00
2018-05-15T06:15:29.086Z,1460.00
2018-05-15T06:16:29.087Z,1468.00
2018-05-15T06:17:29.563Z,1476.00
2018-05-15T06:18:29.091Z,1480.00
2018-05-15T06:19:28.787Z,1488.00
2018-05-15T06:21:28.792Z,1500.00
2018-05-15T06:22:28.822Z,1508.00
2018-05-15T06:23:29.094Z,724.00
2018-05-15T06:24:29.081Z,1480.00
2018-05-15T06:25:29.109Z,1484.00
2018-05-15T06:26:29.377Z,1492.00
2018-05-15T06:27:29.652Z,1504.00
2018-05-15T06:28:28.830Z,1512.00
2018-05-15T06:29:29.125Z,1524.00
2018-05-15T06:30:29.072Z,1532.00
2018-05-15T06:31:29.088Z,1536.00
2018-05-15T06:32:28.410Z,1544.00
2018-05-15T06:33:28.819Z,1552.00
2018-05-15T06:34:28.359Z,1556.00
2018-05-15T06:35:29.095Z,1564.00
2018-05-15T06:36:29.103Z,1576.00
2018-05-15T06:37:28.589Z,1588.00
2018-05-15T06:38:29.667Z,1592.00
2018-05-15T06:39:29.080Z,1600.00
2018-05-15T06:40:36.096Z,1608.00
2018-05-15T06:41:29.083Z,1616.00
2018-05-15T06:42:28.885Z,1616.00
2018-05-15T06:43:28.815Z,1628.00
2018-05-15T06:44:29.120Z,1636.00
2018-05-15T06:45:28.834Z,1640.00
2018-05-15T06:46:30.648Z,1648.00
2018-05-15T06:47:28.882Z,1660.00
2018-05-15T06:48:28.553Z,1664.00
2018-05-15T06:49:28.889Z,1664.00
2018-05-15T06:50:28.845Z,1668.00
2018-05-15T06:51:29.555Z,1676.00
2018-05-15T06:52:28.562Z,1684.00
2018-05-15T06:53:29.157Z,1688.00
2018-05-15T06:54:28.908Z,1696.00
2018-05-15T06:55:28.883Z,1696.00
2018-05-15T06:56:29.439Z,1704.00
2018-05-15T06:57:29.413Z,1708.00
2018-05-15T06:58:29.081Z,1708.00
2018-05-15T06:59:28.871Z,1712.00
2018-05-15T07:00:28.865Z,1716.00
2018-05-15T07:01:29.168Z,1724.00
2018-05-15T07:02:29.151Z,1728.00
2018-05-15T07:03:29.873Z,1736.00
2018-05-15T07:04:28.864Z,1740.00
2018-05-15T07:05:29.077Z,1756.00
2018-05-15T07:06:29.139Z,1760.00
2018-05-15T07:07:29.445Z,1768.00
2018-05-15T07:08:29.107Z,1772.00
2018-05-15T07:09:29.154Z,1780.00
2018-05-15T07:10:29.165Z,1784.00
2018-05-15T07:11:29.091Z,1784.00
2018-05-15T07:12:29.058Z,1780.00
2018-05-15T07:13:28.885Z,1788.00
2018-05-15T07:14:29.085Z,1792.00
2018-05-15T07:15:28.859Z,1796.00
2018-05-15T07:16:28.517Z,1804.00
2018-05-15T07:17:29.156Z,1812.00
2018-05-15T07:18:29.178Z,1820.00
2018-05-15T07:19:29.185Z,1828.00
2018-05-15T07:20:29.392Z,1836.00
2018-05-15T07:21:29.113Z,1844.00
2018-05-15T07:22:28.964Z,1852.00
2018-05-15T07:23:29.361Z,1864.00
2018-05-15T07:24:28.998Z,1872.00
2018-05-15T07:25:29.115Z,1884.00
2018-05-15T07:26:29.262Z,1900.00
2018-05-15T07:27:29.534Z,1904.00
2018-05-15T07:28:28.891Z,1904.00
2018-05-15T07:29:29.427Z,1908.00
2018-05-15T07:30:29.014Z,1908.00
2018-05-15T07:31:29.422Z,1912.00
2018-05-15T07:32:29.134Z,1920.00
2018-05-15T07:33:28.499Z,1920.00
2018-05-15T07:34:28.871Z,1924.00
2018-05-15T07:35:28.849Z,1924.00
2018-05-15T07:36:28.905Z,1928.00
2018-05-15T07:37:30.653Z,1936.00
2018-05-15T07:38:29.137Z,1940.00
2018-05-15T07:39:28.929Z,1948.00
2018-05-15T07:40:29.160Z,1952.00
2018-05-15T07:41:29.421Z,1960.00
2018-05-15T07:42:29.127Z,1968.00
2018-05-15T07:43:29.113Z,1980.00
2018-05-15T07:44:28.970Z,1988.00
2018-05-15T07:45:29.525Z,1920.00
2018-05-15T07:46:31.629Z,1944.00
2018-05-15T07:47:28.977Z,1980.00
2018-05-15T07:48:29.566Z,1900.00
2018-05-15T07:49:29.080Z,1944.00
2018-05-15T07:50:29.091Z,1976.00
2018-05-15T07:51:29.103Z,2000.00
2018-05-15T07:52:29.186Z,2004.00
2018-05-15T07:53:29.556Z,2020.00
2018-05-15T07:54:35.357Z,2036.00
2018-05-15T07:55:34.891Z,2052.00
2018-05-15T07:56:29.572Z,2064.00
2018-05-15T07:57:29.130Z,2056.00
2018-05-15T07:58:28.933Z,2080.00
2018-05-15T07:59:29.651Z,2084.00
2018-05-15T08:00:29.430Z,2100.00
2018-05-15T08:01:29.432Z,2112.00
2018-05-15T08:02:29.746Z,2124.00
2018-05-15T08:03:29.133Z,2148.00
2018-05-15T08:04:29.223Z,2160.00
2018-05-15T08:05:28.991Z,2164.00
2018-05-15T08:06:28.847Z,2168.00
2018-05-15T08:07:28.865Z,2172.00
2018-05-15T08:08:29.413Z,2172.00
2018-05-15T08:09:29.456Z,2164.00
2018-05-15T08:10:29.376Z,2164.00
2018-05-15T08:11:28.851Z,2164.00
2018-05-15T08:12:28.870Z,2160.00
2018-05-15T08:13:29.130Z,2172.00
2018-05-15T08:14:28.878Z,2180.00
2018-05-15T08:15:29.614Z,2184.00
2018-05-15T08:16:29.453Z,2184.00
2018-05-15T08:17:29.316Z,2196.00
2018-05-15T08:18:28.994Z,2208.00
2018-05-15T08:19:29.438Z,2216.00
2018-05-15T08:20:29.495Z,2240.00
2018-05-15T08:21:28.964Z,2260.00
2018-05-15T08:22:29.508Z,2252.00
2018-05-15T08:23:28.892Z,2264.00
2018-05-15T08:24:28.996Z,2260.00
2018-05-15T08:25:29.052Z,2264.00
2018-05-15T08:26:29.190Z,2260.00
2018-05-15T08:27:29.163Z,2304.00
2018-05-15T08:28:29.746Z,2332.00
2018-05-15T08:29:29.091Z,2360.00
2018-05-15T08:30:28.890Z,2408.00
2018-05-15T08:31:29.096Z,2420.00
2018-05-15T08:32:29.534Z,2440.00
2018-05-15T08:33:30.972Z,2496.00
2018-05-15T08:34:29.620Z,2552.00
2018-05-15T08:35:29.523Z,2624.00
2018-05-15T08:36:29.517Z,2688.00
2018-05-15T08:37:29.703Z,2704.00
2018-05-15T08:38:28.926Z,2768.00
2018-05-15T08:39:29.141Z,2848.00
2018-05-15T08:40:29.762Z,2904.00
2018-05-15T08:41:29.262Z,2904.00
2018-05-15T08:42:30.012Z,2860.00
2018-05-15T08:43:29.039Z,2796.00
2018-05-15T08:44:29.248Z,2768.00
2018-05-15T08:45:29.507Z,2744.00
2018-05-15T08:46:29.594Z,2724.00
2018-05-15T08:47:29.086Z,2696.00
2018-05-15T08:48:29.077Z,2688.00
2018-05-15T08:49:28.958Z,2716.00
2018-05-15T08:50:29.011Z,2704.00
2018-05-15T08:51:29.783Z,2692.00
2018-05-15T08:52:29.542Z,2680.00
2018-05-15T08:53:29.222Z,2756.00
2018-05-15T08:54:28.997Z,2836.00
2018-05-15T08:55:29.693Z,2868.00
2018-05-15T08:56:29.670Z,2896.00
2018-05-15T08:57:29.447Z,2892.00
2018-05-15T08:58:29.576Z,2884.00
2018-05-15T08:59:28.724Z,2876.00
2018-05-15T09:00:29.155Z,2836.00
2018-05-15T09:01:29.163Z,2864.00
2018-05-15T09:02:29.659Z,2856.00
2018-05-15T09:03:29.459Z,2844.00
2018-05-15T09:04:29.473Z,2860.00
2018-05-15T09:05:29.666Z,2908.00
2018-05-15T09:06:29.427Z,2940.00
2018-05-15T09:07:29.157Z,2924.00
2018-05-15T09:08:29.441Z,2912.00
2018-05-15T09:09:29.183Z,2952.00
2018-05-15T09:10:29.668Z,2996.00
2018-05-15T09:11:28.960Z,3056.00
2018-05-15T09:12:29.459Z,3096.00
2018-05-15T09:13:29.148Z,3108.00
2018-05-15T09:14:29.617Z,3116.00
2018-05-15T09:15:29.679Z,3104.00
2018-05-15T09:16:28.992Z,3092.00
2018-05-15T09:17:29.058Z,3064.00
2018-05-15T09:18:29.058Z,3040.00
2018-05-15T09:19:29.746Z,3032.00
2018-05-15T09:20:29.192Z,3020.00
2018-05-15T09:21:29.696Z,3036.00
2018-05-15T09:22:28.965Z,3056.00
2018-05-15T09:23:29.529Z,3068.00
2018-05-15T09:25:35.659Z,3116.00
2018-05-15T09:26:29.197Z,3148.00
2018-05-15T09:27:29.203Z,3156.00
2018-05-15T09:28:29.357Z,3192.00
2018-05-15T09:29:29.229Z,3204.00
2018-05-15T09:30:29.227Z,3228.00
2018-05-15T09:31:29.461Z,3236.00
2018-05-15T09:32:29.942Z,3248.00
2018-05-15T09:33:29.975Z,3248.00
2018-05-15T09:34:30.019Z,3268.00
2018-05-15T09:35:29.712Z,3308.00
2018-05-15T09:36:29.510Z,3348.00
2018-05-15T09:37:30.101Z,3420.00
2018-05-15T09:38:29.637Z,3448.00
2018-05-15T09:39:29.521Z,3496.00
2018-05-15T09:40:29.781Z,3584.00
2018-05-15T09:41:29.705Z,3612.00
2018-05-15T09:42:29.617Z,3440.00
2018-05-15T09:43:28.784Z,3384.00
2018-05-15T09:44:29.968Z,3400.00
2018-05-15T09:45:29.715Z,3636.00
2018-05-15T09:46:29.421Z,3904.00
2018-05-15T09:47:29.675Z,4104.00
2018-05-15T09:48:29.217Z,4240.00
2018-05-15T09:49:29.465Z,4396.00
2018-05-15T09:50:29.517Z,4496.00
2018-05-15T09:51:29.689Z,4516.00
2018-05-15T09:52:29.705Z,4620.00
2018-05-15T09:53:29.672Z,4844.00
2018-05-15T09:54:30.152Z,4932.00
2018-05-15T09:55:31.279Z,4984.00
2018-05-15T09:56:30.091Z,4932.00
2018-05-15T09:57:30.813Z,4792.00
2018-05-15T09:58:29.443Z,4652.00
2018-05-15T09:59:30.010Z,4592.00
2018-05-15T10:00:29.446Z,4580.00
2018-05-15T10:01:29.464Z,4572.00
2018-05-15T10:02:29.430Z,4520.00
2018-05-15T10:03:29.724Z,4288.00
2018-05-15T10:04:30.081Z,4292.00
2018-05-15T10:05:29.792Z,4328.00
2018-05-15T10:06:30.187Z,4348.00
2018-05-15T10:07:29.467Z,4404.00
2018-05-15T10:08:29.986Z,4424.00
2018-05-15T10:09:29.632Z,4504.00
2018-05-15T10:10:29.663Z,4508.00
2018-05-15T10:11:29.634Z,4552.00
2018-05-15T10:12:29.713Z,4564.00
2018-05-15T10:13:29.587Z,4624.00
2018-05-15T10:14:29.995Z,4652.00
2018-05-15T10:15:30.184Z,4692.00
2018-05-15T10:16:29.963Z,4740.00
2018-05-15T10:17:30.036Z,4724.00
2018-05-15T10:18:29.639Z,4704.00
2018-05-15T10:19:29.992Z,4732.00
2018-05-15T10:20:29.732Z,4840.00
2018-05-15T10:21:29.521Z,4996.00
2018-05-15T10:22:29.691Z,5056.00
2018-05-15T10:23:29.694Z,5012.00
2018-05-15T10:24:32.210Z,5156.00
2018-05-15T10:25:30.047Z,5664.00
2018-05-15T10:26:29.986Z,5960.00
2018-05-15T10:27:29.969Z,5900.00
2018-05-15T10:28:29.524Z,5624.00
2018-05-15T10:29:29.895Z,5372.00
2018-05-15T10:30:29.687Z,5596.00
2018-05-15T10:31:29.772Z,5996.00
2018-05-15T10:32:32.206Z,6076.00
2018-05-15T10:33:29.628Z,5960.00
2018-05-15T10:34:29.724Z,6216.00
2018-05-15T10:35:30.023Z,6608.00
2018-05-15T10:36:29.749Z,6572.00
2018-05-15T10:37:30.022Z,6672.00
2018-05-15T10:38:31.238Z,6748.00
2018-05-15T10:39:29.469Z,6768.00
2018-05-15T10:40:31.234Z,6752.00
2018-05-15T10:41:29.434Z,6680.00
2018-05-15T10:42:28.738Z,6764.00
2018-05-15T10:43:35.506Z,6920.00
2018-05-15T10:44:29.474Z,6964.00
2018-05-15T10:45:29.428Z,7064.00
2018-05-15T10:46:29.909Z,6924.00
2018-05-15T10:47:29.737Z,6732.00
2018-05-15T10:48:29.701Z,6524.00
2018-05-15T10:49:29.971Z,6604.00
2018-05-15T10:50:29.515Z,6572.00
2018-05-15T10:51:29.600Z,6556.00
2018-05-15T10:53:30.140Z,6428.00
2018-05-15T10:54:30.101Z,6356.00
2018-05-15T10:55:29.679Z,6344.00
2018-05-15T10:56:30.297Z,6372.00
2018-05-15T10:57:29.719Z,6484.00
2018-05-15T10:58:30.106Z,6540.00
2018-05-15T10:59:29.754Z,6568.00
2018-05-15T11:00:29.749Z,6548.00
2018-05-15T11:01:30.337Z,6568.00
2018-05-15T11:02:29.513Z,6704.00
2018-05-15T11:03:30.215Z,7020.00
2018-05-15T11:04:29.819Z,7268.00
2018-05-15T11:05:29.751Z,7508.00
2018-05-15T11:06:29.444Z,7844.00
2018-05-15T11:07:30.133Z,8120.00
2018-05-15T11:08:30.170Z,7880.00
2018-05-15T11:09:32.031Z,7416.00
2018-05-15T11:10:29.958Z,7908.00
2018-05-15T11:11:29.530Z,8696.00
2018-05-15T11:12:29.795Z,8812.00
2018-05-15T11:13:30.195Z,8440.00
2018-05-15T11:14:29.216Z,7992.00
2018-05-15T11:15:30.098Z,7708.00
2018-05-15T11:16:29.301Z,7584.00
2018-05-15T11:17:29.467Z,7204.00
2018-05-15T11:18:29.724Z,7480.00
2018-05-15T11:19:29.280Z,8500.00
2018-05-15T11:20:31.749Z,8684.00
2018-05-15T11:21:30.116Z,8580.00
2018-05-15T11:22:30.213Z,8092.00
2018-05-15T11:23:30.218Z,7016.00
2018-05-15T11:24:29.832Z,7104.00
2018-05-15T11:25:30.139Z,7684.00
2018-05-15T11:26:30.225Z,7816.00
2018-05-15T11:27:29.737Z,7560.00
2018-05-15T11:28:30.257Z,8188.00
2018-05-15T11:29:29.576Z,8040.00
2018-05-15T11:30:29.792Z,7908.00
2018-05-15T11:31:29.766Z,7716.00
2018-05-15T11:32:29.816Z,7488.00
2018-05-15T11:33:30.066Z,7204.00
2018-05-15T11:34:30.252Z,6988.00
2018-05-15T11:35:29.293Z,6824.00
2018-05-15T11:36:30.250Z,6648.00
2018-05-15T11:37:29.791Z,6476.00
2018-05-15T11:38:30.143Z,6364.00
2018-05-15T11:39:30.186Z,6280.00
2018-05-15T11:40:30.351Z,6208.00
2018-05-15T11:41:30.317Z,6212.00
2018-05-15T11:42:30.327Z,6288.00
2018-05-15T11:43:30.622Z,6360.00
2018-05-15T11:44:30.181Z,6432.00
2018-05-15T11:45:30.438Z,6484.00
2018-05-15T11:46:29.725Z,6436.00
2018-05-15T11:47:30.595Z,6444.00
2018-05-15T11:48:30.047Z,6532.00
2018-05-15T11:49:31.511Z,6608.00
2018-05-15T11:50:30.883Z,6760.00
2018-05-15T11:51:31.569Z,6780.00
2018-05-15T11:52:31.546Z,6740.00
2018-05-15T11:53:30.271Z,7100.00
2018-05-15T11:54:30.687Z,7280.00
2018-05-15T11:55:35.292Z,7408.00
2018-05-15T11:56:30.098Z,7488.00
2018-05-15T11:57:29.790Z,7584.00
2018-05-15T11:58:30.527Z,7628.00
2018-05-15T11:59:30.195Z,7776.00
2018-05-15T12:00:30.198Z,7748.00
2018-05-15T12:01:30.857Z,7748.00
2018-05-15T12:02:30.643Z,7756.00
2018-05-15T12:03:30.557Z,7792.00
2018-05-15T12:04:30.541Z,7784.00
2018-05-15T12:05:30.542Z,8020.00
2018-05-15T12:06:30.770Z,8524.00
2018-05-15T12:07:30.238Z,11672.00
2018-05-15T12:08:30.596Z,28064.00
2018-05-15T12:09:30.199Z,48992.00
2018-05-15T12:10:30.729Z,56384.00
2018-05-15T12:11:29.653Z,52544.00
2018-05-15T12:12:29.948Z,48096.00
2018-05-15T12:13:30.309Z,43936.00
2018-05-15T12:14:30.753Z,43744.00
2018-05-15T12:15:30.298Z,47648.00
2018-05-15T12:16:30.278Z,47072.00
2018-05-15T12:17:30.035Z,44064.00
2018-05-15T12:18:30.029Z,47744.00
2018-05-15T12:19:29.994Z,48000.00
2018-05-15T12:20:30.246Z,45888.00
2018-05-15T12:21:29.752Z,47072.00
2018-05-15T12:22:30.779Z,47584.00
2018-05-15T12:23:30.301Z,47392.00
2018-05-15T12:24:30.731Z,46560.00
2018-05-15T12:25:29.809Z,49760.00
2018-05-15T12:26:30.296Z,52000.00
2018-05-15T12:27:30.783Z,57056.00
2018-05-15T12:28:30.527Z,61632.00
2018-05-15T12:29:30.295Z,61792.00